• Join FlightAware (Why Join?)
  • Login
  • US Flag 
10:57AM EST


 

Airport Tracker/Info


-or-


 

Live Flight TrackerFlight Track Log ✈ AWI3688 ✈ 09-May-2013 ✈ KALB - KPHL

Flight Track Log - Related Links

Times and Time Zones

All times are in EDT time to prevent confusion due to time zone crossing. See the AWI3688 flight status page for this flight to view local times or setup timezone preferences in your user account.

Time Position Orientation Groundspeed Altitude Reporting Facility
EDT Latitude Longitude Course Direction KTS MPH feet Rate Location/Type
01:48PM 42.6903 -73.8100 182° South 193 222 3,300  Level Boston Center
01:49PM 42.6775 -73.8294 228° Southwest 223 257 4,300 2,580 Climbing Boston Center
01:50PM 42.7334 -74.2065 270° West  Level FlightAware Approximate
01:50PM 42.6844 -73.9258 276° West 257 296 6,700  Level Boston Center
01:51PM 42.7196 -74.3274 236° Southwest  Level FlightAware Approximate
01:51PM 42.7019 -74.0278 283° West 269 310 9,600  Level Boston Center
01:52PM 42.6491 -74.4095 220° Southwest  Level FlightAware Approximate
01:52PM 42.7172 -74.1244 282° West 276 318 12,600  Level Boston Center
01:53PM 42.5776 -74.4904 223° Southwest  Level FlightAware Approximate
01:53PM 42.7325 -74.2236 282° West 286 329 14,000  Level Boston Center
01:54PM 42.7075 -74.3472 255° West 307 353 14,000  Level Boston Center
01:55PM 42.6433 -74.4383 226° Southwest 323 372 14,000  Level Boston Center
01:56PM 42.5806 -74.5633 236° Southwest 366 421 14,000 180 Level Boston Center
01:57PM 42.5042 -74.6369 215° Southwest 374 430 14,400 960 Climbing Boston Center
01:58PM 42.4150 -74.7236 216° Southwest 367 422 16,000 720 Climbing Boston Center
01:59PM 42.3278 -74.8047 215° Southwest 379 436 15,900 -60 Descending Boston Center
02:00PM 42.2406 -74.8856 214° Southwest 385 443 15,900  Level Boston Center
02:02PM 42.0369 -75.0711 214° Southwest 391 450 16,000  Climbing New York Center
02:03PM 41.9467 -75.1544 214° Southwest 396 456 16,000  Level New York Center
02:04PM 41.8414 -75.2367 210° Southwest 396 456 16,000 -300 Level New York Center
02:05PM 41.7447 -75.3136 211° Southwest 406 467 15,400 -840 Descending New York Center
02:06PM 41.6589 -75.3825 211° Southwest 406 467 14,400 -1,020 Descending New York Center
02:07PM 41.5642 -75.4592 211° Southwest 406 467 13,400 -1,080 Descending New York Center
02:08PM 41.4675 -75.5356 211° Southwest 388 447 12,300 -720 Descending New York Center
02:09PM 41.3769 -75.6094 211° Southwest 388 447 12,000 -180 Descending New York Center
02:10PM 41.2931 -75.6750 210° Southwest 388 447 12,000  Level New York Center
02:11PM 41.1822 -75.6892 185° South 369 425 12,000  Level New York Center
02:12PM 41.0842 -75.6875 179° South 382 440 12,000  Level New York Center
02:13PM 40.9758 -75.6878 180° South 388 447 12,000  Level New York Center
02:14PM 40.8697 -75.6883 180° South 388 447 12,000  Level New York Center
02:15PM 40.7508 -75.6881 180° South 388 447 12,000  Level New York Center
02:16PM 40.6447 -75.6861 179° South 388 447 12,000  Level New York Center
02:17PM 40.5592 -75.6389 157° South 373 429 12,000 -720 Level New York Center
02:18PM 40.4975 -75.5172 124° Southeast 357 411 10,700 -1,020 Descending New York Center
02:19PM 40.4383 -75.4311 132° Southeast 335 386 10,000 -480 Descending New York Center
02:20PM 40.3631 -75.3825 154° Southeast 309 356 9,800 -600 Descending New York Center
02:21PM 40.2956 -75.3508 160° South 290 334 8,900 -960 Descending New York Center
02:22PM 40.2200 -75.3106 158° South 290 334 8,000 -1,020 Descending New York Center
02:23PM 40.1422 -75.2700 158° South 290 334 6,900 -1,140 Descending New York Center
02:24PM 40.0628 -75.2269 157° South 284 327 5,800 -1,320 Descending New York Center
02:25PM 39.9936 -75.1819 154° Southeast 277 319 4,400 -1,440 Descending New York Center